Time;durP1;ratioP1;P1;durP2;ratioP2;P2;SDS_P1;SDS_P2;PMS_P1;PMS_P2;Temp;Humidity;BMP_temperature;BMP_pressure;BME280_temperature;BME280_humidity;BME280_pressure;Samples;Min_cycle;Max_cycle;Signal;HPM_P1;HPM_P2
2023/07/09 00:00:18;;;;;;;4.13;3.30;;;;;;;;;;5053974;28;20499;-86
2023/07/09 00:02:45;;;;;;;4.30;3.40;;;;;;;;;;5050181;28;20377;-87
2023/07/09 00:05:18;;;;;;;4.50;3.35;;;;;;;;;;5055570;28;20854;-87
2023/07/09 00:07:45;;;;;;;3.78;3.38;;;;;;;;;;5055675;28;20381;-87
2023/07/09 00:10:15;;;;;;;3.40;3.10;;;;;;;;;;5055385;28;20938;-86
2023/07/09 00:12:41;;;;;;;3.60;3.30;;;;;;;;;;5055234;28;20403;-87
2023/07/09 00:15:11;;;;;;;4.03;3.63;;;;;;;;;;5055554;28;20843;-87
2023/07/09 00:17:39;;;;;;;4.00;3.15;;;;;;;;;;5055245;28;20380;-87
2023/07/09 00:20:11;;;;;;;4.13;3.50;;;;;;;;;;5055120;28;20460;-87
2023/07/09 00:22:37;;;;;;;3.28;3.00;;;;;;;;;;5055185;28;20389;-87
2023/07/09 00:25:03;;;;;;;4.28;3.17;;;;;;;;;;5055255;28;20385;-87
2023/07/09 00:27:33;;;;;;;4.50;3.30;;;;;;;;;;5055138;28;20378;-86
2023/07/09 00:29:59;;;;;;;4.53;3.30;;;;;;;;;;5055169;28;20421;-86
2023/07/09 00:32:26;;;;;;;4.00;3.70;;;;;;;;;;5055030;28;20374;-88
2023/07/09 00:34:54;;;;;;;4.18;3.30;;;;;;;;;;5055250;28;20389;-87
2023/07/09 00:37:22;;;;;;;3.67;3.38;;;;;;;;;;5054902;28;20938;-87
2023/07/09 00:39:48;;;;;;;3.50;3.20;;;;;;;;;;5035378;28;20393;-87
2023/07/09 00:42:17;;;;;;;4.57;3.67;;;;;;;;;;5053871;28;20855;-86
2023/07/09 00:44:44;;;;;;;5.63;3.58;;;;;;;;;;5054452;28;20386;-86
2023/07/09 00:47:19;;;;;;;3.50;3.20;;;;;;;;;;5037004;28;20468;-87
2023/07/09 00:49:46;;;;;;;3.90;3.10;;;;;;;;;;5054326;28;20414;-87
2023/07/09 00:52:32;;;;;;;4.13;3.50;;;;;;;;;;5054692;28;20385;-87
2023/07/09 00:54:59;;;;;;;4.00;3.25;;;;;;;;;;5054687;28;20940;-87
2023/07/09 00:57:26;;;;;;;3.37;3.07;;;;;;;;;;5054740;28;20404;-86
2023/07/09 00:59:58;;;;;;;3.22;3.03;;;;;;;;;;5054353;28;20416;-88
2023/07/09 01:02:24;;;;;;;3.80;3.30;;;;;;;;;;5054791;28;20468;-87
2023/07/09 01:04:52;;;;;;;4.32;3.13;;;;;;;;;;5054431;28;20465;-86
2023/07/09 01:07:19;;;;;;;3.42;3.03;;;;;;;;;;5054439;28;20903;-86
2023/07/09 01:09:48;;;;;;;3.27;3.00;;;;;;;;;;5054257;28;20412;-87
2023/07/09 01:12:15;;;;;;;3.75;3.20;;;;;;;;;;5053508;28;20762;-87
2023/07/09 01:14:42;;;;;;;4.10;3.30;;;;;;;;;;5045923;28;20373;-86
2023/07/09 01:17:09;;;;;;;3.63;3.30;;;;;;;;;;5054226;28;20471;-87
2023/07/09 01:19:42;;;;;;;3.55;3.25;;;;;;;;;;5054438;28;20404;-87
2023/07/09 01:22:12;;;;;;;5.00;3.40;;;;;;;;;;5054218;28;20385;-86
2023/07/09 01:24:50;;;;;;;4.18;3.08;;;;;;;;;;5054241;28;20428;-86
2023/07/09 01:27:20;;;;;;;3.65;3.35;;;;;;;;;;5054086;28;20392;-86
2023/07/09 01:29:48;;;;;;;3.35;2.95;;;;;;;;;;5053003;28;20401;-86
2023/07/09 01:32:17;;;;;;;4.15;3.30;;;;;;;;;;5045955;28;20379;-86
2023/07/09 01:34:44;;;;;;;3.53;3.22;;;;;;;;;;5048483;28;20377;-88
2023/07/09 01:37:09;;;;;;;5.05;3.58;;;;;;;;;;5054099;28;20370;-86
2023/07/09 01:39:35;;;;;;;4.00;3.47;;;;;;;;;;5035774;28;20389;-86
2023/07/09 01:42:02;;;;;;;4.72;3.85;;;;;;;;;;5053313;28;20905;-86
2023/07/09 01:44:29;;;;;;;4.13;3.80;;;;;;;;;;5053156;28;20487;-87
2023/07/09 01:46:55;;;;;;;3.90;3.35;;;;;;;;;;5053717;28;20466;-87
2023/07/09 01:49:29;;;;;;;3.95;3.60;;;;;;;;;;5035361;28;20917;-86
2023/07/09 01:51:55;;;;;;;3.70;3.40;;;;;;;;;;5053646;28;20448;-86
2023/07/09 01:54:21;;;;;;;3.83;3.53;;;;;;;;;;5052678;28;20473;-87
2023/07/09 01:56:47;;;;;;;3.72;3.42;;;;;;;;;;5053082;28;20389;-86
2023/07/09 01:59:16;;;;;;;3.50;3.20;;;;;;;;;;5053356;28;20384;-86
2023/07/09 02:01:42;;;;;;;3.80;3.30;;;;;;;;;;5053596;28;20381;-87
2023/07/09 02:04:08;;;;;;;4.03;3.38;;;;;;;;;;5053355;28;20897;-86
2023/07/09 02:06:37;;;;;;;3.58;3.28;;;;;;;;;;5035678;28;20472;-87
2023/07/09 02:09:03;;;;;;;4.03;3.63;;;;;;;;;;5050136;28;20416;-87
2023/07/09 02:11:32;;;;;;;3.50;3.20;;;;;;;;;;5026250;28;20377;-87
2023/07/09 02:13:58;;;;;;;3.97;3.15;;;;;;;;;;5052930;28;20381;-86
2023/07/09 02:16:24;;;;;;;4.03;3.63;;;;;;;;;;5053042;28;20373;-86
2023/07/09 02:18:50;;;;;;;3.47;3.17;;;;;;;;;;5052948;28;20747;-86
2023/07/09 02:21:19;;;;;;;3.90;3.50;;;;;;;;;;5052953;28;20512;-86
2023/07/09 02:23:45;;;;;;;3.75;3.45;;;;;;;;;;5052918;28;20384;-88
2023/07/09 02:26:11;;;;;;;3.50;3.20;;;;;;;;;;5052942;28;20464;-86
2023/07/09 02:28:37;;;;;;;3.58;3.28;;;;;;;;;;5049404;28;20417;-86
2023/07/09 02:31:03;;;;;;;3.75;3.38;;;;;;;;;;5042819;28;20411;-86
2023/07/09 02:33:32;;;;;;;3.80;3.50;;;;;;;;;;5046625;28;20738;-87
2023/07/09 02:35:58;;;;;;;3.80;3.47;;;;;;;;;;5051224;28;20383;-86
2023/07/09 02:38:24;;;;;;;4.80;3.45;;;;;;;;;;5051734;28;20461;-87
2023/07/09 02:40:50;;;;;;;3.92;3.50;;;;;;;;;;5051504;28;20449;-87
2023/07/09 02:43:16;;;;;;;3.40;3.10;;;;;;;;;;5052569;28;20483;-86
2023/07/09 02:45:42;;;;;;;3.53;3.22;;;;;;;;;;5050004;28;20388;-86
2023/07/09 02:48:08;;;;;;;5.05;3.60;;;;;;;;;;5052488;28;20819;-87
2023/07/09 02:50:34;;;;;;;3.90;3.47;;;;;;;;;;5052402;28;20487;-87
2023/07/09 02:53:00;;;;;;;3.70;3.38;;;;;;;;;;5052372;28;20386;-85
2023/07/09 02:55:26;;;;;;;4.15;3.70;;;;;;;;;;5052643;28;20921;-86
2023/07/09 02:57:52;;;;;;;3.80;3.40;;;;;;;;;;5052416;28;20377;-86
2023/07/09 03:00:18;;;;;;;3.67;3.33;;;;;;;;;;5052554;28;20390;-86
2023/07/09 03:02:44;;;;;;;4.38;3.63;;;;;;;;;;5052609;28;20400;-87
2023/07/09 03:05:10;;;;;;;4.22;3.65;;;;;;;;;;5051967;28;20377;-86
2023/07/09 03:07:36;;;;;;;4.72;3.47;;;;;;;;;;5052348;28;20381;-87
2023/07/09 03:10:03;;;;;;;4.20;3.80;;;;;;;;;;5052975;28;20402;-86
2023/07/09 03:12:28;;;;;;;4.47;3.35;;;;;;;;;;5053236;28;20393;-87
2023/07/09 03:14:54;;;;;;;3.83;3.40;;;;;;;;;;5052751;28;20377;-87
2023/07/09 03:17:20;;;;;;;3.70;3.35;;;;;;;;;;5034851;28;20874;-87
2023/07/09 03:19:46;;;;;;;5.45;3.50;;;;;;;;;;5052740;28;20469;-87
2023/07/09 03:22:12;;;;;;;3.63;3.30;;;;;;;;;;5050342;28;20385;-86
2023/07/09 03:24:38;;;;;;;3.60;3.30;;;;;;;;;;5052450;28;20468;-86
2023/07/09 03:27:05;;;;;;;3.60;3.30;;;;;;;;;;5052297;28;20393;-86
2023/07/09 03:29:31;;;;;;;3.47;3.17;;;;;;;;;;5051897;28;20416;-86
2023/07/09 03:31:57;;;;;;;4.00;3.33;;;;;;;;;;5052153;28;20385;-87
2023/07/09 03:34:23;;;;;;;4.00;3.60;;;;;;;;;;5051816;28;20374;-87
2023/07/09 03:36:49;;;;;;;3.83;3.20;;;;;;;;;;5052098;28;20929;-87
2023/07/09 03:39:15;;;;;;;4.00;3.50;;;;;;;;;;5034269;28;20389;-87
2023/07/09 03:41:41;;;;;;;3.50;3.20;;;;;;;;;;5051880;28;20404;-87
2023/07/09 03:44:07;;;;;;;3.70;3.40;;;;;;;;;;5049542;28;20771;-86
2023/07/09 03:46:33;;;;;;;4.55;3.47;;;;;;;;;;5051738;28;20385;-86
2023/07/09 03:48:59;;;;;;;3.85;3.55;;;;;;;;;;5052153;28;20409;-86
2023/07/09 03:51:25;;;;;;;3.78;3.30;;;;;;;;;;5033818;28;20882;-86
2023/07/09 03:53:51;;;;;;;3.60;3.30;;;;;;;;;;5051802;28;20451;-86
2023/07/09 03:56:17;;;;;;;3.55;3.25;;;;;;;;;;5051272;28;20381;-86
2023/07/09 03:58:43;;;;;;;3.83;3.53;;;;;;;;;;5051671;28;20385;-86
2023/07/09 04:01:09;;;;;;;3.50;3.20;;;;;;;;;;5051684;28;20724;-86
2023/07/09 04:03:35;;;;;;;3.80;3.40;;;;;;;;;;5051663;28;20389;-86
2023/07/09 04:06:04;;;;;;;3.47;3.17;;;;;;;;;;5051585;28;20746;-86
2023/07/09 04:08:30;;;;;;;3.70;3.30;;;;;;;;;;5051458;28;20417;-86
2023/07/09 04:10:59;;;;;;;3.78;3.30;;;;;;;;;;5051639;28;20400;-86
2023/07/09 04:13:27;;;;;;;3.70;3.30;;;;;;;;;;5051951;28;20708;-87
2023/07/09 04:15:53;;;;;;;3.80;3.40;;;;;;;;;;5051518;28;20793;-86
2023/07/09 04:18:21;;;;;;;4.80;3.40;;;;;;;;;;5052559;28;20928;-86
2023/07/09 04:20:51;;;;;;;3.60;3.20;;;;;;;;;;5054942;28;20385;-86
2023/07/09 04:23:17;;;;;;;4.10;3.47;;;;;;;;;;5055310;28;20377;-86
2023/07/09 04:25:44;;;;;;;3.50;3.20;;;;;;;;;;5054200;28;20377;-87
2023/07/09 04:28:09;;;;;;;4.25;3.38;;;;;;;;;;5051863;28;20413;-86
2023/07/09 04:30:38;;;;;;;3.88;3.53;;;;;;;;;;5047701;28;20403;-86
2023/07/09 04:33:04;;;;;;;3.70;3.40;;;;;;;;;;5054100;28;20444;-86
2023/07/09 04:35:30;;;;;;;4.20;3.35;;;;;;;;;;5055179;28;20382;-85
2023/07/09 04:37:56;;;;;;;3.80;3.25;;;;;;;;;;5054592;28;20855;-86
2023/07/09 04:40:22;;;;;;;4.20;3.50;;;;;;;;;;5052387;28;20388;-87
2023/07/09 04:42:48;;;;;;;4.00;3.60;;;;;;;;;;5036839;28;20928;-86
2023/07/09 04:45:14;;;;;;;3.72;3.42;;;;;;;;;;5055217;28;20445;-87
2023/07/09 04:47:40;;;;;;;3.90;3.57;;;;;;;;;;5054922;28;20514;-86
2023/07/09 04:50:07;;;;;;;3.47;3.17;;;;;;;;;;5054672;28;20607;-87
2023/07/09 04:52:33;;;;;;;3.65;3.28;;;;;;;;;;5054817;28;20382;-87
2023/07/09 04:55:00;;;;;;;3.90;3.50;;;;;;;;;;5054582;28;20386;-87
2023/07/09 04:57:27;;;;;;;3.58;3.10;;;;;;;;;;5054407;28;20460;-86
2023/07/09 04:59:53;;;;;;;3.78;3.47;;;;;;;;;;5054136;28;20467;-86
2023/07/09 05:02:19;;;;;;;3.90;3.60;;;;;;;;;;5054362;28;20381;-85
2023/07/09 05:04:48;;;;;;;3.63;3.33;;;;;;;;;;5053406;28;20932;-86
2023/07/09 05:07:14;;;;;;;3.60;3.30;;;;;;;;;;5051911;28;20932;-85
2023/07/09 05:09:40;;;;;;;3.45;3.03;;;;;;;;;;5054128;28;20409;-86
2023/07/09 05:12:06;;;;;;;3.45;3.13;;;;;;;;;;5053434;28;20419;-87
2023/07/09 05:14:32;;;;;;;3.63;3.20;;;;;;;;;;5054410;28;20378;-87
2023/07/09 05:16:58;;;;;;;4.32;3.47;;;;;;;;;;5054125;28;20462;-87
2023/07/09 05:19:24;;;;;;;4.20;3.50;;;;;;;;;;5036125;28;20400;-86
2023/07/09 05:21:53;;;;;;;4.20;3.58;;;;;;;;;;5049486;28;20388;-87
2023/07/09 05:24:19;;;;;;;3.97;3.58;;;;;;;;;;5054234;28;20746;-85
2023/07/09 05:26:45;;;;;;;3.72;3.40;;;;;;;;;;5052596;28;20751;-87
2023/07/09 05:29:14;;;;;;;3.33;2.92;;;;;;;;;;5053330;28;20463;-86
2023/07/09 05:31:41;;;;;;;4.33;3.63;;;;;;;;;;5053912;28;20866;-85
2023/07/09 05:34:10;;;;;;;3.80;3.50;;;;;;;;;;5054166;28;20792;-86
2023/07/09 05:36:36;;;;;;;3.70;3.30;;;;;;;;;;5054110;28;20373;-86
2023/07/09 05:39:02;;;;;;;4.63;3.30;;;;;;;;;;5053791;28;20392;-85
2023/07/09 05:41:31;;;;;;;3.60;3.00;;;;;;;;;;5050474;28;20425;-85
2023/07/09 05:44:06;;;;;;;3.43;3.13;;;;;;;;;;5053171;28;20890;-86
2023/07/09 05:46:38;;;;;;;3.30;3.00;;;;;;;;;;5053982;28;20378;-86
2023/07/09 05:49:04;;;;;;;5.30;3.35;;;;;;;;;;5053693;28;20477;-85
2023/07/09 05:51:30;;;;;;;3.70;3.20;;;;;;;;;;5053530;28;20385;-85
2023/07/09 05:53:56;;;;;;;3.67;3.35;;;;;;;;;;5053280;28;20746;-85
2023/07/09 05:56:22;;;;;;;3.80;3.45;;;;;;;;;;5053449;28;20374;-84
2023/07/09 05:58:48;;;;;;;3.80;3.33;;;;;;;;;;5053448;28;20460;-85
2023/07/09 06:01:14;;;;;;;3.55;3.08;;;;;;;;;;5053268;28;20417;-85
2023/07/09 06:03:40;;;;;;;3.70;3.40;;;;;;;;;;5036096;28;20382;-84
2023/07/09 06:06:06;;;;;;;3.80;3.30;;;;;;;;;;5053370;28;20389;-86
2023/07/09 06:08:33;;;;;;;3.50;3.20;;;;;;;;;;5053266;28;20385;-85
2023/07/09 06:11:00;;;;;;;3.70;3.15;;;;;;;;;;5053257;28;20457;-85
2023/07/09 06:13:27;;;;;;;3.80;3.50;;;;;;;;;;5052950;28;20377;-86
2023/07/09 06:15:56;;;;;;;3.53;3.20;;;;;;;;;;5052871;28;20491;-87
2023/07/09 06:18:23;;;;;;;3.72;3.28;;;;;;;;;;5052994;28;20381;-86
2023/07/09 06:20:50;;;;;;;3.35;3.05;;;;;;;;;;5052582;28;20436;-85
2023/07/09 06:23:16;;;;;;;4.10;3.70;;;;;;;;;;5049851;28;20841;-86
2023/07/09 06:25:47;;;;;;;3.80;3.50;;;;;;;;;;5033849;28;20922;-86
2023/07/09 06:28:15;;;;;;;3.50;3.20;;;;;;;;;;5052998;28;20739;-86
2023/07/09 06:30:41;;;;;;;3.75;3.40;;;;;;;;;;5052600;28;20385;-85
2023/07/09 06:33:07;;;;;;;3.95;3.55;;;;;;;;;;5052075;28;20736;-85
2023/07/09 06:35:33;;;;;;;3.85;3.47;;;;;;;;;;5052539;28;20378;-85
2023/07/09 06:37:59;;;;;;;4.22;3.70;;;;;;;;;;5052851;28;20396;-85
2023/07/09 06:40:25;;;;;;;3.70;3.30;;;;;;;;;;5052786;28;20382;-88
2023/07/09 06:42:51;;;;;;;3.50;3.20;;;;;;;;;;5053089;28;20882;-89
2023/07/09 06:45:17;;;;;;;4.05;3.42;;;;;;;;;;5051440;28;21036;-88
2023/07/09 06:47:43;;;;;;;4.57;3.50;;;;;;;;;;5034782;28;20439;-89
2023/07/09 06:50:13;;;;;;;4.90;3.70;;;;;;;;;;5052967;28;20409;-87
2023/07/09 06:52:39;;;;;;;3.88;3.33;;;;;;;;;;5052532;28;20381;-88
2023/07/09 06:55:08;;;;;;;4.47;3.65;;;;;;;;;;5052831;28;20419;-88
2023/07/09 06:57:34;;;;;;;4.03;3.60;;;;;;;;;;5052503;28;20377;-88
2023/07/09 07:00:00;;;;;;;3.72;3.40;;;;;;;;;;5045825;28;20384;-88
2023/07/09 07:02:26;;;;;;;3.58;2.95;;;;;;;;;;5034823;28;20397;-90
2023/07/09 07:04:52;;;;;;;3.88;3.40;;;;;;;;;;5052897;28;20393;-90
2023/07/09 07:07:22;;;;;;;4.78;3.90;;;;;;;;;;5052847;28;20392;-90
2023/07/09 07:09:50;;;;;;;4.27;3.77;;;;;;;;;;5052650;28;20413;-89
2023/07/09 07:12:27;;;;;;;4.00;3.70;;;;;;;;;;5052492;28;20759;-88
2023/07/09 07:14:58;;;;;;;5.03;4.53;;;;;;;;;;5052612;28;20769;-89
2023/07/09 07:17:27;;;;;;;3.80;3.50;;;;;;;;;;5049820;28;20374;-89
2023/07/09 07:19:56;;;;;;;4.25;3.85;;;;;;;;;;5042263;28;20424;-89
2023/07/09 07:22:21;;;;;;;4.60;3.80;;;;;;;;;;5047504;28;20385;-89
2023/07/09 07:24:47;;;;;;;12.07;4.10;;;;;;;;;;5047536;28;20398;-89
2023/07/09 07:27:16;;;;;;;4.22;3.83;;;;;;;;;;5052205;28;20439;-89
2023/07/09 07:29:42;;;;;;;6.70;3.90;;;;;;;;;;5033008;28;20413;-89
2023/07/09 07:32:11;;;;;;;4.03;3.63;;;;;;;;;;5052045;28;20382;-88
2023/07/09 07:34:40;;;;;;;4.38;3.60;;;;;;;;;;5051591;28;20381;-86
2023/07/09 07:37:06;;;;;;;4.97;3.70;;;;;;;;;;5052693;28;20877;-89
2023/07/09 07:39:32;;;;;;;10.38;5.68;;;;;;;;;;5052361;28;20382;-91
2023/07/09 07:42:01;;;;;;;4.95;4.45;;;;;;;;;;5049083;28;20480;-89
2023/07/09 07:44:30;;;;;;;5.00;4.03;;;;;;;;;;5051491;28;20870;-86
2023/07/09 07:46:59;;;;;;;4.57;4.18;;;;;;;;;;5051955;28;20377;-80
2023/07/09 07:49:25;;;;;;;4.30;3.90;;;;;;;;;;5032959;28;20397;-79
2023/07/09 07:51:51;;;;;;;4.10;3.53;;;;;;;;;;5051456;28;20419;-79
2023/07/09 07:54:18;;;;;;;4.20;3.70;;;;;;;;;;5055698;28;20859;-79
2023/07/09 07:56:44;;;;;;;4.90;4.40;;;;;;;;;;5055569;28;20373;-79
2023/07/09 07:59:10;;;;;;;4.50;3.77;;;;;;;;;;5055628;28;20393;-79
2023/07/09 08:01:36;;;;;;;4.33;3.93;;;;;;;;;;5055464;28;20385;-80
2023/07/09 08:04:03;;;;;;;5.10;3.90;;;;;;;;;;5055630;28;20502;-80
2023/07/09 08:06:31;;;;;;;4.18;3.38;;;;;;;;;;5055461;28;20393;-79
2023/07/09 08:09:00;;;;;;;5.22;3.92;;;;;;;;;;5055290;28;20409;-79
2023/07/09 08:11:31;;;;;;;5.07;3.80;;;;;;;;;;5055477;28;20466;-79
2023/07/09 08:13:57;;;;;;;4.93;3.70;;;;;;;;;;5055393;28;20389;-79
2023/07/09 08:16:23;;;;;;;3.77;3.40;;;;;;;;;;5037378;28;20475;-80
2023/07/09 08:18:49;;;;;;;4.63;3.83;;;;;;;;;;5055070;28;20392;-79
2023/07/09 08:21:15;;;;;;;4.03;3.65;;;;;;;;;;5036816;28;20400;-80
2023/07/09 08:23:44;;;;;;;5.15;3.35;;;;;;;;;;5055105;28;20377;-79
2023/07/09 08:26:10;;;;;;;4.05;3.40;;;;;;;;;;5055063;28;20389;-79
2023/07/09 08:28:36;;;;;;;4.03;3.30;;;;;;;;;;5054943;28;20456;-79
2023/07/09 08:31:02;;;;;;;4.57;3.23;;;;;;;;;;5052762;28;20373;-79
2023/07/09 08:33:28;;;;;;;4.30;3.60;;;;;;;;;;5055166;28;20427;-80
2023/07/09 08:35:54;;;;;;;4.57;3.50;;;;;;;;;;5053221;28;20380;-79
2023/07/09 08:38:21;;;;;;;5.45;3.35;;;;;;;;;;5054864;28;20465;-79
2023/07/09 08:40:58;;;;;;;6.40;3.60;;;;;;;;;;5036815;28;20755;-79
2023/07/09 08:43:36;;;;;;;3.70;3.40;;;;;;;;;;5042351;28;20462;-80
2023/07/09 08:46:17;;;;;;;5.07;3.47;;;;;;;;;;5053682;28;20416;-80
2023/07/09 08:48:45;;;;;;;5.25;3.30;;;;;;;;;;5055054;28;20409;-79
2023/07/09 08:51:20;;;;;;;4.07;3.33;;;;;;;;;;5054473;28;20385;-80
2023/07/09 08:53:57;;;;;;;3.80;3.00;;;;;;;;;;5054582;28;20381;-79
2023/07/09 08:56:23;;;;;;;4.75;3.22;;;;;;;;;;5054399;28;20412;-79
2023/07/09 08:58:51;;;;;;;4.70;3.22;;;;;;;;;;5054589;28;20930;-80
2023/07/09 09:01:22;;;;;;;3.53;3.23;;;;;;;;;;5054349;28;20393;-79
2023/07/09 09:03:54;;;;;;;3.20;2.90;;;;;;;;;;5035648;28;20408;-79
2023/07/09 09:06:27;;;;;;;3.28;3.05;;;;;;;;;;5036767;28;20397;-79
2023/07/09 09:08:53;;;;;;;4.30;3.20;;;;;;;;;;5054313;28;20913;-79
2023/07/09 09:11:22;;;;;;;3.33;3.03;;;;;;;;;;5052673;28;20383;-79
2023/07/09 09:13:49;;;;;;;3.35;3.05;;;;;;;;;;5050086;28;20892;-79
2023/07/09 09:16:21;;;;;;;3.83;3.30;;;;;;;;;;5054319;28;20870;-79
2023/07/09 09:18:47;;;;;;;4.05;3.08;;;;;;;;;;5054273;28;20427;-79
2023/07/09 09:21:18;;;;;;;4.10;3.10;;;;;;;;;;5054065;28;20850;-79
2023/07/09 09:23:47;;;;;;;3.70;2.80;;;;;;;;;;5052522;28;20381;-79
2023/07/09 09:26:18;;;;;;;3.97;3.08;;;;;;;;;;5032838;28;20407;-80
2023/07/09 09:28:44;;;;;;;3.28;2.97;;;;;;;;;;5051641;28;20415;-79
2023/07/09 09:31:11;;;;;;;3.53;3.05;;;;;;;;;;5053802;28;20404;-79
2023/07/09 09:33:45;;;;;;;4.40;2.78;;;;;;;;;;5053953;28;20384;-80
2023/07/09 09:36:15;;;;;;;3.55;3.20;;;;;;;;;;5053638;28;20378;-79
2023/07/09 09:38:41;;;;;;;3.17;2.87;;;;;;;;;;5053816;28;20443;-80
2023/07/09 09:41:12;;;;;;;4.18;2.78;;;;;;;;;;5053633;28;20379;-79
2023/07/09 09:43:45;;;;;;;3.30;3.00;;;;;;;;;;5053210;28;20401;-79
2023/07/09 09:46:21;;;;;;;3.73;2.60;;;;;;;;;;5053046;28;20427;-80
2023/07/09 09:48:48;;;;;;;2.75;2.53;;;;;;;;;;5053829;28;20431;-78
2023/07/09 09:51:15;;;;;;;3.03;2.70;;;;;;;;;;5053727;28;20436;-77
2023/07/09 09:53:45;;;;;;;2.90;2.60;;;;;;;;;;5053578;28;20430;-77
2023/07/09 09:56:15;;;;;;;2.45;2.25;;;;;;;;;;5053409;28;20382;-77
2023/07/09 09:58:42;;;;;;;2.85;2.15;;;;;;;;;;5054238;28;20465;-77
2023/07/09 10:01:15;;;;;;;2.53;2.33;;;;;;;;;;5053314;28;20893;-77
2023/07/09 10:03:44;;;;;;;3.47;2.70;;;;;;;;;;5039916;28;20405;-79
2023/07/09 10:06:15;;;;;;;4.50;2.30;;;;;;;;;;5053293;28;20373;-80
2023/07/09 10:08:45;;;;;;;2.47;2.28;;;;;;;;;;5053003;28;20381;-77
2023/07/09 10:11:41;;;;;;;2.80;2.50;;;;;;;;;;5053145;28;20708;-77
2023/07/09 10:14:30;;;;;;;4.05;2.30;;;;;;;;;;5039790;28;20881;-77
2023/07/09 10:17:01;;;;;;;3.33;2.60;;;;;;;;;;5043367;28;20382;-77
2023/07/09 10:19:37;;;;;;;3.05;2.45;;;;;;;;;;5053266;28;20385;-77
2023/07/09 10:22:06;;;;;;;4.07;2.58;;;;;;;;;;5052938;28;20385;-77
2023/07/09 10:24:40;;;;;;;3.38;2.40;;;;;;;;;;5035389;28;20476;-77
2023/07/09 10:27:39;;;;;;;3.63;2.60;;;;;;;;;;5051260;28;20472;-80
2023/07/09 10:30:20;;;;;;;2.60;2.38;;;;;;;;;;5000366;28;20407;-80
2023/07/09 10:32:52;;;;;;;3.33;2.50;;;;;;;;;;5050787;28;20782;-80
2023/07/09 10:35:24;;;;;;;2.38;2.15;;;;;;;;;;5052824;28;20424;-78
2023/07/09 10:37:56;;;;;;;2.90;2.60;;;;;;;;;;5050757;28;20381;-77
2023/07/09 10:40:28;;;;;;;2.95;2.17;;;;;;;;;;5043515;28;20380;-77
2023/07/09 10:42:58;;;;;;;2.58;2.38;;;;;;;;;;5052242;28;20786;-77
2023/07/09 10:45:56;;;;;;;3.25;2.80;;;;;;;;;;5052949;28;20455;-77
2023/07/09 10:48:45;;;;;;;2.73;2.20;;;;;;;;;;5016515;28;20385;-77
2023/07/09 10:51:17;;;;;;;4.80;2.30;;;;;;;;;;5044309;28;20405;-77
2023/07/09 10:53:49;;;;;;;2.40;2.10;;;;;;;;;;5051406;28;20457;-77
2023/07/09 10:56:17;;;;;;;3.13;2.10;;;;;;;;;;5052238;28;20890;-77
2023/07/09 10:59:05;;;;;;;3.35;2.42;;;;;;;;;;5052757;28;20846;-78
2023/07/09 11:01:43;;;;;;;5.35;2.33;;;;;;;;;;5052334;28;20361;-79
2023/07/09 11:04:11;;;;;;;3.33;2.35;;;;;;;;;;5052630;28;20432;-80
2023/07/09 11:06:44;;;;;;;3.30;2.37;;;;;;;;;;5052278;28;20370;-77
2023/07/09 11:09:18;;;;;;;3.38;2.50;;;;;;;;;;5052016;28;20413;-77
2023/07/09 11:11:45;;;;;;;3.63;2.20;;;;;;;;;;5051580;28;20519;-78
2023/07/09 11:14:32;;;;;;;3.15;2.03;;;;;;;;;;5051525;28;20859;-77
2023/07/09 11:17:00;;;;;;;3.03;2.20;;;;;;;;;;5041657;28;20885;-77
2023/07/09 11:19:26;;;;;;;2.40;2.03;;;;;;;;;;5046072;28;20393;-79
2023/07/09 11:22:00;;;;;;;3.33;2.42;;;;;;;;;;5044265;28;20439;-77
2023/07/09 11:24:35;;;;;;;3.10;2.38;;;;;;;;;;5051948;28;20873;-77
2023/07/09 11:27:02;;;;;;;2.42;2.22;;;;;;;;;;5051358;28;20858;-77
2023/07/09 11:29:28;;;;;;;2.58;2.38;;;;;;;;;;5051883;28;20401;-80
2023/07/09 11:31:58;;;;;;;2.30;2.10;;;;;;;;;;5052024;28;20430;-80
2023/07/09 11:34:27;;;;;;;2.40;2.10;;;;;;;;;;5051982;28;20377;-80
2023/07/09 11:37:01;;;;;;;3.10;2.42;;;;;;;;;;5052078;28;20401;-80
2023/07/09 11:39:42;;;;;;;2.53;2.33;;;;;;;;;;5052065;28;20420;-80
2023/07/09 11:42:26;;;;;;;4.00;2.35;;;;;;;;;;5051561;28;20412;-80
2023/07/09 11:44:56;;;;;;;3.20;2.40;;;;;;;;;;5051829;28;20463;-77
2023/07/09 11:47:27;;;;;;;4.03;1.92;;;;;;;;;;5051773;28;20386;-78
2023/07/09 11:50:01;;;;;;;2.20;1.80;;;;;;;;;;5051576;28;20481;-78
2023/07/09 11:52:33;;;;;;;2.90;1.88;;;;;;;;;;5051892;28;20400;-77
2023/07/09 11:55:03;;;;;;;2.35;1.90;;;;;;;;;;5051226;28;21026;-77
2023/07/09 11:57:29;;;;;;;1.88;1.70;;;;;;;;;;5050663;28;20814;-77
2023/07/09 11:59:59;;;;;;;1.45;1.25;;;;;;;;;;5051771;28;20388;-78
2023/07/09 12:02:30;;;;;;;2.50;1.30;;;;;;;;;;5051771;28;20393;-77
2023/07/09 12:04:56;;;;;;;1.63;1.35;;;;;;;;;;5051919;28;20386;-77
2023/07/09 12:07:26;;;;;;;2.00;1.50;;;;;;;;;;5051930;28;20380;-79
2023/07/09 12:09:53;;;;;;;2.33;1.40;;;;;;;;;;5051719;28;20809;-77
2023/07/09 12:12:20;;;;;;;2.30;1.80;;;;;;;;;;5051665;28;20431;-77
2023/07/09 12:14:46;;;;;;;2.25;1.80;;;;;;;;;;5051892;28;20377;-77
2023/07/09 12:17:12;;;;;;;2.00;1.50;;;;;;;;;;5051397;28;20405;-78
2023/07/09 12:19:48;;;;;;;3.38;1.90;;;;;;;;;;5051720;28;20416;-78
2023/07/09 12:22:21;;;;;;;2.20;1.70;;;;;;;;;;5051483;28;20461;-78
2023/07/09 12:24:48;;;;;;;2.30;1.63;;;;;;;;;;5051689;28;20870;-78
2023/07/09 12:27:18;;;;;;;1.95;1.60;;;;;;;;;;5051404;28;20468;-77
2023/07/09 12:29:47;;;;;;;1.60;1.50;;;;;;;;;;5051441;28;20459;-77
2023/07/09 12:32:17;;;;;;;1.65;1.50;;;;;;;;;;5051988;28;20385;-78
2023/07/09 12:34:47;;;;;;;2.10;1.57;;;;;;;;;;5044955;28;20374;-78
2023/07/09 12:37:22;;;;;;;1.63;1.40;;;;;;;;;;5051799;28;20381;-78
2023/07/09 12:39:51;;;;;;;2.53;1.60;;;;;;;;;;5054708;28;20464;-78
2023/07/09 12:42:31;;;;;;;1.45;1.35;;;;;;;;;;5054896;28;20446;-78
2023/07/09 12:44:57;;;;;;;1.75;1.55;;;;;;;;;;5053470;28;20388;-77
2023/07/09 12:47:24;;;;;;;2.40;1.40;;;;;;;;;;5025185;28;20387;-77
2023/07/09 12:50:01;;;;;;;3.03;1.50;;;;;;;;;;5053143;28;20413;-78
2023/07/09 12:52:27;;;;;;;2.40;1.45;;;;;;;;;;5055034;28;20381;-79
2023/07/09 12:54:59;;;;;;;2.10;1.50;;;;;;;;;;5054664;28;20378;-79
2023/07/09 12:57:28;;;;;;;2.53;1.60;;;;;;;;;;5054898;28;20729;-79
2023/07/09 12:59:57;;;;;;;2.50;1.70;;;;;;;;;;5054462;28;20456;-78
2023/07/09 13:02:25;;;;;;;1.92;1.50;;;;;;;;;;5054538;28;20857;-78
2023/07/09 13:05:03;;;;;;;2.30;1.70;;;;;;;;;;5054347;28;20384;-79
2023/07/09 13:07:35;;;;;;;1.95;1.58;;;;;;;;;;5036477;28;20761;-79
2023/07/09 13:10:21;;;;;;;1.83;1.60;;;;;;;;;;5054443;28;20401;-78
2023/07/09 13:12:51;;;;;;;2.42;1.60;;;;;;;;;;5054300;28;20464;-78
2023/07/09 13:15:40;;;;;;;2.17;1.65;;;;;;;;;;5054654;28;20370;-79
2023/07/09 13:18:07;;;;;;;2.40;2.00;;;;;;;;;;5014605;28;20809;-78
2023/07/09 13:20:35;;;;;;;2.22;1.58;;;;;;;;;;5049673;28;20455;-79
2023/07/09 13:23:01;;;;;;;2.20;1.80;;;;;;;;;;5054274;28;20456;-79
2023/07/09 13:25:30;;;;;;;2.35;1.80;;;;;;;;;;5054258;28;20392;-78
2023/07/09 13:27:56;;;;;;;1.77;1.50;;;;;;;;;;5054090;28;20378;-79
2023/07/09 13:30:22;;;;;;;2.75;2.00;;;;;;;;;;5053980;28;20417;-78
2023/07/09 13:32:49;;;;;;;3.70;2.00;;;;;;;;;;5053867;28;20382;-78
2023/07/09 13:35:24;;;;;;;2.92;1.90;;;;;;;;;;5053931;28;20374;-79
2023/07/09 13:37:50;;;;;;;2.00;1.80;;;;;;;;;;5053683;28;20389;-79
2023/07/09 13:40:16;;;;;;;3.17;1.85;;;;;;;;;;5053555;28;20993;-79
2023/07/09 13:42:49;;;;;;;3.08;1.98;;;;;;;;;;5052680;28;20543;-79
2023/07/09 13:45:17;;;;;;;2.33;1.80;;;;;;;;;;5053700;28;20400;-79
2023/07/09 13:47:43;;;;;;;2.00;1.80;;;;;;;;;;5053641;28;20385;-79
2023/07/09 13:50:09;;;;;;;2.30;1.80;;;;;;;;;;5034729;28;20402;-79
2023/07/09 13:52:35;;;;;;;3.35;1.95;;;;;;;;;;5053540;28;20405;-79
2023/07/09 13:55:01;;;;;;;2.72;1.88;;;;;;;;;;5053751;28;20461;-79
2023/07/09 13:57:27;;;;;;;3.45;2.40;;;;;;;;;;5053588;28;20373;-79
2023/07/09 13:59:55;;;;;;;3.10;1.93;;;;;;;;;;5053321;28;20377;-79
2023/07/09 14:02:24;;;;;;;2.47;2.03;;;;;;;;;;5053484;28;20863;-79
2023/07/09 14:04:50;;;;;;;3.85;2.17;;;;;;;;;;5053387;28;20383;-79
2023/07/09 14:07:31;;;;;;;2.63;1.90;;;;;;;;;;5053233;28;20878;-79
2023/07/09 14:09:57;;;;;;;2.72;2.13;;;;;;;;;;5053067;28;20902;-79
2023/07/09 14:12:24;;;;;;;2.72;2.10;;;;;;;;;;5053154;28;20385;-79
2023/07/09 14:14:51;;;;;;;2.67;2.35;;;;;;;;;;5053229;28;20460;-79
2023/07/09 14:17:17;;;;;;;3.30;2.40;;;;;;;;;;5053048;28;20859;-79
2023/07/09 14:19:43;;;;;;;2.85;2.38;;;;;;;;;;5052955;28;20377;-79
2023/07/09 14:22:28;;;;;;;2.20;2.00;;;;;;;;;;5053111;28;20380;-79
2023/07/09 14:24:54;;;;;;;2.35;1.98;;;;;;;;;;5053107;28;20471;-79
2023/07/09 14:27:20;;;;;;;3.22;2.00;;;;;;;;;;5052996;28;20385;-79
2023/07/09 14:29:46;;;;;;;3.22;1.95;;;;;;;;;;5052743;28;20972;-79
2023/07/09 14:32:27;;;;;;;2.45;2.03;;;;;;;;;;5051632;28;20432;-79
2023/07/09 14:34:53;;;;;;;3.40;1.95;;;;;;;;;;5021571;28;20719;-79
2023/07/09 14:37:19;;;;;;;2.45;2.25;;;;;;;;;;5052815;28;20412;-79
2023/07/09 14:39:46;;;;;;;2.72;2.20;;;;;;;;;;5052550;28;20390;-79
2023/07/09 14:42:13;;;;;;;2.30;2.00;;;;;;;;;;5051142;28;20391;-79
2023/07/09 14:44:40;;;;;;;2.35;2.10;;;;;;;;;;5050523;28;20389;-79
2023/07/09 14:47:16;;;;;;;2.30;2.08;;;;;;;;;;5052679;28;20515;-79
2023/07/09 14:49:42;;;;;;;3.03;2.30;;;;;;;;;;5052252;28;20408;-79
2023/07/09 14:52:12;;;;;;;3.25;2.22;;;;;;;;;;5052451;28;20747;-79